sensor_id;sensor_type;location;lat;lon;timestamp;temperature;humidity
12013;DHT22;6065;48.138;16.402;2022-10-23T00:01:13;12.00;99.90
12013;DHT22;6065;48.138;16.402;2022-10-23T00:03:40;12.00;99.90
12013;DHT22;6065;48.138;16.402;2022-10-23T00:06:07;12.00;99.90
12013;DHT22;6065;48.138;16.402;2022-10-23T00:08:34;12.00;99.90
12013;DHT22;6065;48.138;16.402;2022-10-23T00:11:04;12.00;99.90
12013;DHT22;6065;48.138;16.402;2022-10-23T00:13:33;11.90;99.90
12013;DHT22;6065;48.138;16.402;2022-10-23T00:16:00;11.90;99.90
12013;DHT22;6065;48.138;16.402;2022-10-23T00:18:26;11.90;99.90
12013;DHT22;6065;48.138;16.402;2022-10-23T00:20:54;11.90;99.90
12013;DHT22;6065;48.138;16.402;2022-10-23T00:23:22;11.80;99.90
12013;DHT22;6065;48.138;16.402;2022-10-23T00:25:49;11.80;99.90
12013;DHT22;6065;48.138;16.402;2022-10-23T00:28:16;11.80;99.90
12013;DHT22;6065;48.138;16.402;2022-10-23T00:30:44;11.80;99.90
12013;DHT22;6065;48.138;16.402;2022-10-23T00:33:11;11.80;99.90
12013;DHT22;6065;48.138;16.402;2022-10-23T00:35:37;11.80;99.90
12013;DHT22;6065;48.138;16.402;2022-10-23T00:38:05;11.70;99.90
12013;DHT22;6065;48.138;16.402;2022-10-23T00:40:32;11.70;99.90
12013;DHT22;6065;48.138;16.402;2022-10-23T00:42:59;11.70;99.90
12013;DHT22;6065;48.138;16.402;2022-10-23T00:45:26;11.70;99.90
12013;DHT22;6065;48.138;16.402;2022-10-23T00:47:57;11.60;99.90
12013;DHT22;6065;48.138;16.402;2022-10-23T00:50:24;11.70;99.90
12013;DHT22;6065;48.138;16.402;2022-10-23T00:52:52;11.60;99.90
12013;DHT22;6065;48.138;16.402;2022-10-23T00:55:20;11.60;99.90
12013;DHT22;6065;48.138;16.402;2022-10-23T00:57:48;11.60;99.90
12013;DHT22;6065;48.138;16.402;2022-10-23T01:00:16;11.50;99.90
12013;DHT22;6065;48.138;16.402;2022-10-23T01:02:43;11.50;99.90
12013;DHT22;6065;48.138;16.402;2022-10-23T01:05:12;11.50;99.90
12013;DHT22;6065;48.138;16.402;2022-10-23T01:07:42;11.50;99.90
12013;DHT22;6065;48.138;16.402;2022-10-23T01:10:14;11.40;99.90
12013;DHT22;6065;48.138;16.402;2022-10-23T01:12:43;11.40;99.90
12013;DHT22;6065;48.138;16.402;2022-10-23T01:15:12;11.40;99.90
12013;DHT22;6065;48.138;16.402;2022-10-23T01:17:42;11.40;99.90
12013;DHT22;6065;48.138;16.402;2022-10-23T01:20:18;11.40;99.90
12013;DHT22;6065;48.138;16.402;2022-10-23T01:22:53;11.30;99.90
12013;DHT22;6065;48.138;16.402;2022-10-23T01:25:28;11.30;99.90
12013;DHT22;6065;48.138;16.402;2022-10-23T01:28:00;11.30;99.90
12013;DHT22;6065;48.138;16.402;2022-10-23T01:30:28;11.30;99.90
12013;DHT22;6065;48.138;16.402;2022-10-23T01:32:57;11.20;99.90
12013;DHT22;6065;48.138;16.402;2022-10-23T01:35:28;11.10;99.90
12013;DHT22;6065;48.138;16.402;2022-10-23T01:38:00;11.10;99.90
12013;DHT22;6065;48.138;16.402;2022-10-23T01:40:29;11.20;99.90
12013;DHT22;6065;48.138;16.402;2022-10-23T01:43:00;11.10;99.90
12013;DHT22;6065;48.138;16.402;2022-10-23T01:45:31;11.10;99.90
12013;DHT22;6065;48.138;16.402;2022-10-23T01:47:59;11.10;99.90
12013;DHT22;6065;48.138;16.402;2022-10-23T01:50:28;11.10;99.90
12013;DHT22;6065;48.138;16.402;2022-10-23T01:52:55;11.10;99.90
12013;DHT22;6065;48.138;16.402;2022-10-23T01:55:23;11.10;99.90
12013;DHT22;6065;48.138;16.402;2022-10-23T01:57:53;11.10;99.90
12013;DHT22;6065;48.138;16.402;2022-10-23T02:00:21;11.00;99.90
12013;DHT22;6065;48.138;16.402;2022-10-23T02:02:50;11.00;99.90
12013;DHT22;6065;48.138;16.402;2022-10-23T02:05:17;11.00;99.90
12013;DHT22;6065;48.138;16.402;2022-10-23T02:07:45;11.10;99.90
12013;DHT22;6065;48.138;16.402;2022-10-23T02:10:12;11.10;99.90
12013;DHT22;6065;48.138;16.402;2022-10-23T02:12:43;11.20;99.90
12013;DHT22;6065;48.138;16.402;2022-10-23T02:15:12;11.20;99.90
12013;DHT22;6065;48.138;16.402;2022-10-23T02:17:44;11.20;99.90
12013;DHT22;6065;48.138;16.402;2022-10-23T02:20:16;11.10;99.90
12013;DHT22;6065;48.138;16.402;2022-10-23T02:22:45;11.10;99.90
12013;DHT22;6065;48.138;16.402;2022-10-23T02:25:15;11.20;99.90
12013;DHT22;6065;48.138;16.402;2022-10-23T02:27:43;11.10;99.90
12013;DHT22;6065;48.138;16.402;2022-10-23T02:30:11;11.10;99.90
12013;DHT22;6065;48.138;16.402;2022-10-23T02:32:39;11.10;99.90
12013;DHT22;6065;48.138;16.402;2022-10-23T02:35:09;11.10;99.90
12013;DHT22;6065;48.138;16.402;2022-10-23T02:37:36;11.10;99.90
12013;DHT22;6065;48.138;16.402;2022-10-23T02:40:03;11.10;99.90
12013;DHT22;6065;48.138;16.402;2022-10-23T02:42:31;11.10;99.90
12013;DHT22;6065;48.138;16.402;2022-10-23T02:45:02;11.00;99.90
12013;DHT22;6065;48.138;16.402;2022-10-23T02:47:34;11.00;99.90
12013;DHT22;6065;48.138;16.402;2022-10-23T02:50:10;11.00;99.90
12013;DHT22;6065;48.138;16.402;2022-10-23T02:52:40;11.00;99.90
12013;DHT22;6065;48.138;16.402;2022-10-23T02:55:11;10.90;99.90
12013;DHT22;6065;48.138;16.402;2022-10-23T02:57:40;10.90;99.90
12013;DHT22;6065;48.138;16.402;2022-10-23T03:00:09;10.90;99.90
12013;DHT22;6065;48.138;16.402;2022-10-23T03:02:37;10.90;99.90
12013;DHT22;6065;48.138;16.402;2022-10-23T03:05:06;11.00;99.90
12013;DHT22;6065;48.138;16.402;2022-10-23T03:07:35;10.90;99.90
12013;DHT22;6065;48.138;16.402;2022-10-23T03:10:02;11.00;99.90
12013;DHT22;6065;48.138;16.402;2022-10-23T03:12:29;10.90;99.90
12013;DHT22;6065;48.138;16.402;2022-10-23T03:14:56;10.80;99.90
12013;DHT22;6065;48.138;16.402;2022-10-23T03:17:23;10.80;99.90
12013;DHT22;6065;48.138;16.402;2022-10-23T03:19:50;10.70;99.90
12013;DHT22;6065;48.138;16.402;2022-10-23T03:22:17;10.60;99.90
12013;DHT22;6065;48.138;16.402;2022-10-23T03:24:45;10.60;99.90
12013;DHT22;6065;48.138;16.402;2022-10-23T03:27:12;10.60;99.90
12013;DHT22;6065;48.138;16.402;2022-10-23T03:29:40;10.50;99.90
12013;DHT22;6065;48.138;16.402;2022-10-23T03:32:07;10.40;99.90
12013;DHT22;6065;48.138;16.402;2022-10-23T03:34:34;10.40;99.90
12013;DHT22;6065;48.138;16.402;2022-10-23T03:37:01;10.40;99.90
12013;DHT22;6065;48.138;16.402;2022-10-23T03:39:28;10.30;99.90
12013;DHT22;6065;48.138;16.402;2022-10-23T03:41:56;10.30;99.90
12013;DHT22;6065;48.138;16.402;2022-10-23T03:44:23;10.30;99.90
12013;DHT22;6065;48.138;16.402;2022-10-23T03:46:50;10.20;99.90
12013;DHT22;6065;48.138;16.402;2022-10-23T03:49:17;10.20;99.90
12013;DHT22;6065;48.138;16.402;2022-10-23T03:51:45;10.20;99.90
12013;DHT22;6065;48.138;16.402;2022-10-23T03:54:17;10.20;99.90
12013;DHT22;6065;48.138;16.402;2022-10-23T03:56:44;10.10;99.90
12013;DHT22;6065;48.138;16.402;2022-10-23T03:59:12;10.20;99.90
12013;DHT22;6065;48.138;16.402;2022-10-23T04:01:39;10.20;99.90
12013;DHT22;6065;48.138;16.402;2022-10-23T04:04:06;10.30;99.90
12013;DHT22;6065;48.138;16.402;2022-10-23T04:06:33;10.20;99.90
12013;DHT22;6065;48.138;16.402;2022-10-23T04:09:00;10.20;99.90
12013;DHT22;6065;48.138;16.402;2022-10-23T04:11:27;10.10;99.90
12013;DHT22;6065;48.138;16.402;2022-10-23T04:13:54;10.10;99.90
12013;DHT22;6065;48.138;16.402;2022-10-23T04:16:22;10.00;99.90
12013;DHT22;6065;48.138;16.402;2022-10-23T04:18:49;10.00;99.90
12013;DHT22;6065;48.138;16.402;2022-10-23T04:21:16;10.00;99.90
12013;DHT22;6065;48.138;16.402;2022-10-23T04:23:43;10.00;99.90
12013;DHT22;6065;48.138;16.402;2022-10-23T04:26:09;9.90;99.90
12013;DHT22;6065;48.138;16.402;2022-10-23T04:28:36;9.90;99.90
12013;DHT22;6065;48.138;16.402;2022-10-23T04:31:03;9.80;99.90
12013;DHT22;6065;48.138;16.402;2022-10-23T04:33:31;9.80;99.90
12013;DHT22;6065;48.138;16.402;2022-10-23T04:35:58;9.90;99.90
12013;DHT22;6065;48.138;16.402;2022-10-23T04:38:25;10.00;99.90
12013;DHT22;6065;48.138;16.402;2022-10-23T04:40:51;10.00;99.90
12013;DHT22;6065;48.138;16.402;2022-10-23T04:43:18;10.00;99.90
12013;DHT22;6065;48.138;16.402;2022-10-23T04:45:45;10.00;99.90
12013;DHT22;6065;48.138;16.402;2022-10-23T04:48:13;10.00;99.90
12013;DHT22;6065;48.138;16.402;2022-10-23T04:50:41;10.00;99.90
12013;DHT22;6065;48.138;16.402;2022-10-23T04:53:09;10.00;99.90
12013;DHT22;6065;48.138;16.402;2022-10-23T04:55:36;10.00;99.90
12013;DHT22;6065;48.138;16.402;2022-10-23T04:58:03;10.00;99.90
12013;DHT22;6065;48.138;16.402;2022-10-23T05:00:30;9.90;99.90
12013;DHT22;6065;48.138;16.402;2022-10-23T05:02:56;9.90;99.90
12013;DHT22;6065;48.138;16.402;2022-10-23T05:05:23;9.90;99.90
12013;DHT22;6065;48.138;16.402;2022-10-23T05:07:52;9.90;99.90
12013;DHT22;6065;48.138;16.402;2022-10-23T05:10:19;9.80;99.90
12013;DHT22;6065;48.138;16.402;2022-10-23T05:12:46;9.90;99.90
12013;DHT22;6065;48.138;16.402;2022-10-23T05:15:12;9.90;99.90
12013;DHT22;6065;48.138;16.402;2022-10-23T05:17:40;9.80;99.90
12013;DHT22;6065;48.138;16.402;2022-10-23T05:20:08;9.80;99.90
12013;DHT22;6065;48.138;16.402;2022-10-23T05:22:37;9.70;99.90
12013;DHT22;6065;48.138;16.402;2022-10-23T05:25:06;9.70;99.90
12013;DHT22;6065;48.138;16.402;2022-10-23T05:27:33;9.70;99.90
12013;DHT22;6065;48.138;16.402;2022-10-23T05:30:00;9.70;99.90
12013;DHT22;6065;48.138;16.402;2022-10-23T05:32:28;9.70;99.90
12013;DHT22;6065;48.138;16.402;2022-10-23T05:34:56;9.70;99.90
12013;DHT22;6065;48.138;16.402;2022-10-23T05:37:23;9.70;99.90
12013;DHT22;6065;48.138;16.402;2022-10-23T05:39:50;9.70;99.90
12013;DHT22;6065;48.138;16.402;2022-10-23T05:42:18;9.70;99.90
12013;DHT22;6065;48.138;16.402;2022-10-23T05:44:46;9.70;99.90
12013;DHT22;6065;48.138;16.402;2022-10-23T05:47:13;9.60;99.90
12013;DHT22;6065;48.138;16.402;2022-10-23T05:49:39;9.60;99.90
12013;DHT22;6065;48.138;16.402;2022-10-23T05:52:09;9.60;99.90
12013;DHT22;6065;48.138;16.402;2022-10-23T05:54:35;9.60;99.90
12013;DHT22;6065;48.138;16.402;2022-10-23T05:57:02;9.50;99.90
12013;DHT22;6065;48.138;16.402;2022-10-23T05:59:30;9.50;99.90
12013;DHT22;6065;48.138;16.402;2022-10-23T06:01:57;9.60;99.90
12013;DHT22;6065;48.138;16.402;2022-10-23T06:04:24;9.60;99.90
12013;DHT22;6065;48.138;16.402;2022-10-23T06:06:51;9.60;99.90
12013;DHT22;6065;48.138;16.402;2022-10-23T06:09:18;9.60;99.90
12013;DHT22;6065;48.138;16.402;2022-10-23T06:11:45;9.60;99.90
12013;DHT22;6065;48.138;16.402;2022-10-23T06:14:12;9.60;99.90
12013;DHT22;6065;48.138;16.402;2022-10-23T06:16:40;9.70;99.90
12013;DHT22;6065;48.138;16.402;2022-10-23T06:19:08;9.60;99.90
12013;DHT22;6065;48.138;16.402;2022-10-23T06:21:35;9.70;99.90
12013;DHT22;6065;48.138;16.402;2022-10-23T06:24:02;9.70;99.90
12013;DHT22;6065;48.138;16.402;2022-10-23T06:26:29;9.70;99.90
12013;DHT22;6065;48.138;16.402;2022-10-23T06:28:56;9.70;99.90
12013;DHT22;6065;48.138;16.402;2022-10-23T06:31:23;9.70;99.90
12013;DHT22;6065;48.138;16.402;2022-10-23T06:33:52;9.70;99.90
12013;DHT22;6065;48.138;16.402;2022-10-23T06:36:19;9.70;99.90
12013;DHT22;6065;48.138;16.402;2022-10-23T06:38:47;9.80;99.90
12013;DHT22;6065;48.138;16.402;2022-10-23T06:41:14;9.80;99.90
12013;DHT22;6065;48.138;16.402;2022-10-23T06:43:41;9.80;99.90
12013;DHT22;6065;48.138;16.402;2022-10-23T06:46:08;9.80;99.90
12013;DHT22;6065;48.138;16.402;2022-10-23T06:48:35;9.80;99.90
12013;DHT22;6065;48.138;16.402;2022-10-23T06:51:05;9.80;99.90
12013;DHT22;6065;48.138;16.402;2022-10-23T06:53:32;9.90;99.90
12013;DHT22;6065;48.138;16.402;2022-10-23T06:56:00;9.90;99.90
12013;DHT22;6065;48.138;16.402;2022-10-23T06:58:27;9.90;99.90
12013;DHT22;6065;48.138;16.402;2022-10-23T07:00:54;10.00;99.90
12013;DHT22;6065;48.138;16.402;2022-10-23T07:03:21;10.00;99.90
12013;DHT22;6065;48.138;16.402;2022-10-23T07:05:48;10.00;99.90
12013;DHT22;6065;48.138;16.402;2022-10-23T07:08:16;10.10;99.90
12013;DHT22;6065;48.138;16.402;2022-10-23T07:10:43;10.10;99.90
12013;DHT22;6065;48.138;16.402;2022-10-23T07:13:10;10.10;99.90
12013;DHT22;6065;48.138;16.402;2022-10-23T07:15:37;10.20;99.90
12013;DHT22;6065;48.138;16.402;2022-10-23T07:18:04;10.20;99.90
12013;DHT22;6065;48.138;16.402;2022-10-23T07:20:31;10.30;99.90
12013;DHT22;6065;48.138;16.402;2022-10-23T07:22:58;10.30;99.90
12013;DHT22;6065;48.138;16.402;2022-10-23T07:25:26;10.30;99.90
12013;DHT22;6065;48.138;16.402;2022-10-23T07:27:53;10.40;99.90
12013;DHT22;6065;48.138;16.402;2022-10-23T07:30:20;10.50;99.90
12013;DHT22;6065;48.138;16.402;2022-10-23T07:32:48;10.50;99.90
12013;DHT22;6065;48.138;16.402;2022-10-23T07:35:15;10.50;99.90
12013;DHT22;6065;48.138;16.402;2022-10-23T07:37:43;10.50;99.90
12013;DHT22;6065;48.138;16.402;2022-10-23T07:40:10;10.60;99.90
12013;DHT22;6065;48.138;16.402;2022-10-23T07:42:38;10.60;99.90
12013;DHT22;6065;48.138;16.402;2022-10-23T07:45:06;10.70;99.90
12013;DHT22;6065;48.138;16.402;2022-10-23T07:47:33;10.80;99.90
12013;DHT22;6065;48.138;16.402;2022-10-23T07:50:00;10.90;99.90
12013;DHT22;6065;48.138;16.402;2022-10-23T07:52:27;10.90;99.90
12013;DHT22;6065;48.138;16.402;2022-10-23T07:54:53;11.00;99.90
12013;DHT22;6065;48.138;16.402;2022-10-23T07:57:20;11.00;99.90
12013;DHT22;6065;48.138;16.402;2022-10-23T07:59:49;11.10;99.90
12013;DHT22;6065;48.138;16.402;2022-10-23T08:02:16;11.20;99.90
12013;DHT22;6065;48.138;16.402;2022-10-23T08:04:43;11.10;99.90
12013;DHT22;6065;48.138;16.402;2022-10-23T08:07:10;11.30;99.90
12013;DHT22;6065;48.138;16.402;2022-10-23T08:09:37;11.40;99.90
12013;DHT22;6065;48.138;16.402;2022-10-23T08:12:04;11.50;99.90
12013;DHT22;6065;48.138;16.402;2022-10-23T08:14:31;11.50;99.90
12013;DHT22;6065;48.138;16.402;2022-10-23T08:16:59;11.60;99.90
12013;DHT22;6065;48.138;16.402;2022-10-23T08:19:25;11.60;99.90
12013;DHT22;6065;48.138;16.402;2022-10-23T08:21:52;11.60;99.90
12013;DHT22;6065;48.138;16.402;2022-10-23T08:24:21;11.80;99.90
12013;DHT22;6065;48.138;16.402;2022-10-23T08:26:48;11.80;99.90
12013;DHT22;6065;48.138;16.402;2022-10-23T08:29:15;11.80;99.90
12013;DHT22;6065;48.138;16.402;2022-10-23T08:31:42;11.90;99.90
12013;DHT22;6065;48.138;16.402;2022-10-23T08:34:10;11.90;99.90
12013;DHT22;6065;48.138;16.402;2022-10-23T08:36:37;11.90;99.90
12013;DHT22;6065;48.138;16.402;2022-10-23T08:39:04;11.90;99.90
12013;DHT22;6065;48.138;16.402;2022-10-23T08:41:32;12.00;99.90
12013;DHT22;6065;48.138;16.402;2022-10-23T08:44:01;12.00;99.90
12013;DHT22;6065;48.138;16.402;2022-10-23T08:46:29;12.00;99.90
12013;DHT22;6065;48.138;16.402;2022-10-23T08:48:58;12.00;99.90
12013;DHT22;6065;48.138;16.402;2022-10-23T08:51:31;12.10;99.90
12013;DHT22;6065;48.138;16.402;2022-10-23T08:54:02;12.10;99.90
12013;DHT22;6065;48.138;16.402;2022-10-23T08:56:31;12.20;99.90
12013;DHT22;6065;48.138;16.402;2022-10-23T08:59:00;12.20;99.90
12013;DHT22;6065;48.138;16.402;2022-10-23T09:01:34;12.30;99.90
12013;DHT22;6065;48.138;16.402;2022-10-23T09:04:02;12.40;99.90
12013;DHT22;6065;48.138;16.402;2022-10-23T09:06:33;12.40;99.90
12013;DHT22;6065;48.138;16.402;2022-10-23T09:09:06;12.50;99.90
12013;DHT22;6065;48.138;16.402;2022-10-23T09:11:38;12.50;99.90
12013;DHT22;6065;48.138;16.402;2022-10-23T09:17:01;12.50;99.90
12013;DHT22;6065;48.138;16.402;2022-10-23T09:19:30;12.60;99.90
12013;DHT22;6065;48.138;16.402;2022-10-23T09:21:58;12.60;99.90
12013;DHT22;6065;48.138;16.402;2022-10-23T09:24:26;12.70;99.90
12013;DHT22;6065;48.138;16.402;2022-10-23T09:26:56;12.80;99.90
12013;DHT22;6065;48.138;16.402;2022-10-23T09:29:23;12.80;99.90
12013;DHT22;6065;48.138;16.402;2022-10-23T09:31:51;12.80;99.90
12013;DHT22;6065;48.138;16.402;2022-10-23T09:34:19;12.90;99.90
12013;DHT22;6065;48.138;16.402;2022-10-23T09:36:50;12.90;99.90
12013;DHT22;6065;48.138;16.402;2022-10-23T09:39:22;12.90;99.90
12013;DHT22;6065;48.138;16.402;2022-10-23T09:41:49;12.90;99.90
12013;DHT22;6065;48.138;16.402;2022-10-23T09:44:17;12.90;99.90
12013;DHT22;6065;48.138;16.402;2022-10-23T09:46:45;12.90;99.90
12013;DHT22;6065;48.138;16.402;2022-10-23T09:49:19;12.90;99.90
12013;DHT22;6065;48.138;16.402;2022-10-23T09:51:50;12.90;99.90
12013;DHT22;6065;48.138;16.402;2022-10-23T09:54:18;12.90;99.90
12013;DHT22;6065;48.138;16.402;2022-10-23T09:56:50;13.00;99.90
12013;DHT22;6065;48.138;16.402;2022-10-23T09:59:20;13.00;99.90
12013;DHT22;6065;48.138;16.402;2022-10-23T10:01:48;13.00;99.90
12013;DHT22;6065;48.138;16.402;2022-10-23T10:04:15;13.10;99.90
12013;DHT22;6065;48.138;16.402;2022-10-23T10:06:42;13.10;99.90
12013;DHT22;6065;48.138;16.402;2022-10-23T10:09:10;13.20;99.90
12013;DHT22;6065;48.138;16.402;2022-10-23T10:11:38;13.20;99.90
12013;DHT22;6065;48.138;16.402;2022-10-23T10:16:56;13.20;99.90
12013;DHT22;6065;48.138;16.402;2022-10-23T10:19:26;13.30;99.90
12013;DHT22;6065;48.138;16.402;2022-10-23T10:21:55;13.40;99.90
12013;DHT22;6065;48.138;16.402;2022-10-23T10:24:29;13.50;99.90
12013;DHT22;6065;48.138;16.402;2022-10-23T10:26:59;13.50;99.90
12013;DHT22;6065;48.138;16.402;2022-10-23T10:29:32;13.60;99.90
12013;DHT22;6065;48.138;16.402;2022-10-23T10:32:05;13.60;99.90
12013;DHT22;6065;48.138;16.402;2022-10-23T10:34:40;13.60;99.90
12013;DHT22;6065;48.138;16.402;2022-10-23T10:37:12;13.70;99.90
12013;DHT22;6065;48.138;16.402;2022-10-23T10:39:44;13.70;99.90
12013;DHT22;6065;48.138;16.402;2022-10-23T10:42:30;13.80;99.90
12013;DHT22;6065;48.138;16.402;2022-10-23T10:45:12;13.80;99.90
12013;DHT22;6065;48.138;16.402;2022-10-23T10:47:42;13.90;99.90
12013;DHT22;6065;48.138;16.402;2022-10-23T10:50:14;14.00;99.90
12013;DHT22;6065;48.138;16.402;2022-10-23T10:52:44;14.00;99.90
12013;DHT22;6065;48.138;16.402;2022-10-23T10:55:14;14.00;99.90
12013;DHT22;6065;48.138;16.402;2022-10-23T10:57:44;14.20;99.90
12013;DHT22;6065;48.138;16.402;2022-10-23T11:00:13;14.30;99.90
12013;DHT22;6065;48.138;16.402;2022-10-23T11:02:42;14.40;99.90
12013;DHT22;6065;48.138;16.402;2022-10-23T11:05:16;14.50;99.90
12013;DHT22;6065;48.138;16.402;2022-10-23T11:07:48;14.50;99.90
12013;DHT22;6065;48.138;16.402;2022-10-23T11:10:20;14.60;99.90
12013;DHT22;6065;48.138;16.402;2022-10-23T11:12:47;14.70;99.90
12013;DHT22;6065;48.138;16.402;2022-10-23T11:15:14;14.80;99.90
12013;DHT22;6065;48.138;16.402;2022-10-23T11:17:45;14.90;99.90
12013;DHT22;6065;48.138;16.402;2022-10-23T11:20:15;14.90;99.90
12013;DHT22;6065;48.138;16.402;2022-10-23T11:22:47;15.00;99.90
12013;DHT22;6065;48.138;16.402;2022-10-23T11:25:32;15.10;99.90
12013;DHT22;6065;48.138;16.402;2022-10-23T11:28:18;15.20;99.90
12013;DHT22;6065;48.138;16.402;2022-10-23T11:30:53;15.30;99.90
12013;DHT22;6065;48.138;16.402;2022-10-23T11:33:33;15.30;99.90
12013;DHT22;6065;48.138;16.402;2022-10-23T11:36:05;15.40;99.90
12013;DHT22;6065;48.138;16.402;2022-10-23T11:38:32;15.40;99.90
12013;DHT22;6065;48.138;16.402;2022-10-23T11:41:01;15.50;99.90
12013;DHT22;6065;48.138;16.402;2022-10-23T11:43:29;15.50;99.90
12013;DHT22;6065;48.138;16.402;2022-10-23T11:46:12;15.50;99.90
12013;DHT22;6065;48.138;16.402;2022-10-23T11:48:42;15.50;99.90
12013;DHT22;6065;48.138;16.402;2022-10-23T11:53:51;15.50;99.90
12013;DHT22;6065;48.138;16.402;2022-10-23T11:56:25;15.50;99.90
12013;DHT22;6065;48.138;16.402;2022-10-23T11:58:53;15.50;99.90
12013;DHT22;6065;48.138;16.402;2022-10-23T12:01:33;15.40;99.90
12013;DHT22;6065;48.138;16.402;2022-10-23T12:04:04;15.40;99.90
12013;DHT22;6065;48.138;16.402;2022-10-23T12:06:36;15.30;99.90
12013;DHT22;6065;48.138;16.402;2022-10-23T12:09:06;15.30;99.90
12013;DHT22;6065;48.138;16.402;2022-10-23T12:11:41;15.20;99.90
12013;DHT22;6065;48.138;16.402;2022-10-23T12:14:24;15.20;99.90
12013;DHT22;6065;48.138;16.402;2022-10-23T12:16:51;15.10;99.90
12013;DHT22;6065;48.138;16.402;2022-10-23T12:19:20;15.10;99.90
12013;DHT22;6065;48.138;16.402;2022-10-23T12:21:48;15.10;99.90
12013;DHT22;6065;48.138;16.402;2022-10-23T12:24:26;15.00;99.90
12013;DHT22;6065;48.138;16.402;2022-10-23T12:27:00;15.00;99.90
12013;DHT22;6065;48.138;16.402;2022-10-23T12:29:40;14.90;99.90
12013;DHT22;6065;48.138;16.402;2022-10-23T12:32:24;14.90;99.90
12013;DHT22;6065;48.138;16.402;2022-10-23T12:35:03;14.90;99.90
12013;DHT22;6065;48.138;16.402;2022-10-23T12:37:45;14.80;99.90
12013;DHT22;6065;48.138;16.402;2022-10-23T12:40:16;14.80;99.90
12013;DHT22;6065;48.138;16.402;2022-10-23T12:42:48;14.70;99.90
12013;DHT22;6065;48.138;16.402;2022-10-23T12:45:16;14.70;99.90
12013;DHT22;6065;48.138;16.402;2022-10-23T12:47:44;14.70;99.90
12013;DHT22;6065;48.138;16.402;2022-10-23T12:50:20;14.60;99.90
12013;DHT22;6065;48.138;16.402;2022-10-23T12:52:50;14.60;99.90
12013;DHT22;6065;48.138;16.402;2022-10-23T12:55:18;14.50;99.90
12013;DHT22;6065;48.138;16.402;2022-10-23T12:57:45;14.50;99.90
12013;DHT22;6065;48.138;16.402;2022-10-23T13:00:13;14.50;99.90
12013;DHT22;6065;48.138;16.402;2022-10-23T13:02:40;14.40;99.90
12013;DHT22;6065;48.138;16.402;2022-10-23T13:05:08;14.40;99.90
12013;DHT22;6065;48.138;16.402;2022-10-23T13:07:41;14.40;99.90
12013;DHT22;6065;48.138;16.402;2022-10-23T13:10:10;14.40;99.90
12013;DHT22;6065;48.138;16.402;2022-10-23T13:12:39;14.40;99.90
12013;DHT22;6065;48.138;16.402;2022-10-23T13:15:16;14.40;99.90
12013;DHT22;6065;48.138;16.402;2022-10-23T13:17:44;14.40;99.90
12013;DHT22;6065;48.138;16.402;2022-10-23T13:20:22;14.40;99.90
12013;DHT22;6065;48.138;16.402;2022-10-23T13:22:54;14.40;99.90
12013;DHT22;6065;48.138;16.402;2022-10-23T13:25:23;14.30;99.90
12013;DHT22;6065;48.138;16.402;2022-10-23T13:27:50;14.30;99.90
12013;DHT22;6065;48.138;16.402;2022-10-23T13:30:27;14.30;99.90
12013;DHT22;6065;48.138;16.402;2022-10-23T13:32:54;14.30;99.90
12013;DHT22;6065;48.138;16.402;2022-10-23T13:35:21;14.30;99.90
12013;DHT22;6065;48.138;16.402;2022-10-23T13:37:52;14.30;99.90
12013;DHT22;6065;48.138;16.402;2022-10-23T13:40:20;14.30;99.90
12013;DHT22;6065;48.138;16.402;2022-10-23T13:42:48;14.30;99.90
12013;DHT22;6065;48.138;16.402;2022-10-23T13:45:17;14.30;99.90
12013;DHT22;6065;48.138;16.402;2022-10-23T13:47:44;14.30;99.90
12013;DHT22;6065;48.138;16.402;2022-10-23T13:50:11;14.40;99.90
12013;DHT22;6065;48.138;16.402;2022-10-23T13:52:38;14.40;99.90
12013;DHT22;6065;48.138;16.402;2022-10-23T13:55:10;14.30;99.90
12013;DHT22;6065;48.138;16.402;2022-10-23T13:57:41;14.30;99.90
12013;DHT22;6065;48.138;16.402;2022-10-23T14:00:09;14.30;99.90
12013;DHT22;6065;48.138;16.402;2022-10-23T14:02:35;14.30;99.90
12013;DHT22;6065;48.138;16.402;2022-10-23T14:05:02;14.30;99.90
12013;DHT22;6065;48.138;16.402;2022-10-23T14:07:29;14.30;99.90
12013;DHT22;6065;48.138;16.402;2022-10-23T14:10:00;14.30;99.90
12013;DHT22;6065;48.138;16.402;2022-10-23T14:12:28;14.30;99.90
12013;DHT22;6065;48.138;16.402;2022-10-23T14:14:55;14.30;99.90
12013;DHT22;6065;48.138;16.402;2022-10-23T14:17:23;14.20;99.90
12013;DHT22;6065;48.138;16.402;2022-10-23T14:19:51;14.20;99.90
12013;DHT22;6065;48.138;16.402;2022-10-23T14:22:19;14.20;99.90
12013;DHT22;6065;48.138;16.402;2022-10-23T14:24:46;14.20;99.90
12013;DHT22;6065;48.138;16.402;2022-10-23T14:27:13;14.10;99.90
12013;DHT22;6065;48.138;16.402;2022-10-23T14:29:41;14.10;99.90
12013;DHT22;6065;48.138;16.402;2022-10-23T14:32:08;14.00;99.90
12013;DHT22;6065;48.138;16.402;2022-10-23T14:34:35;14.00;99.90
12013;DHT22;6065;48.138;16.402;2022-10-23T14:37:03;13.90;99.90
12013;DHT22;6065;48.138;16.402;2022-10-23T14:39:30;13.90;99.90
12013;DHT22;6065;48.138;16.402;2022-10-23T14:41:57;13.90;99.90
12013;DHT22;6065;48.138;16.402;2022-10-23T14:44:23;13.80;99.90
12013;DHT22;6065;48.138;16.402;2022-10-23T14:46:52;13.80;99.90
12013;DHT22;6065;48.138;16.402;2022-10-23T14:49:19;13.80;99.90
12013;DHT22;6065;48.138;16.402;2022-10-23T14:51:45;13.70;99.90
12013;DHT22;6065;48.138;16.402;2022-10-23T14:54:12;13.70;99.90
12013;DHT22;6065;48.138;16.402;2022-10-23T14:56:40;13.70;99.90
12013;DHT22;6065;48.138;16.402;2022-10-23T14:59:07;13.60;99.90
12013;DHT22;6065;48.138;16.402;2022-10-23T15:01:36;13.60;99.90
12013;DHT22;6065;48.138;16.402;2022-10-23T15:04:05;13.60;99.90
12013;DHT22;6065;48.138;16.402;2022-10-23T15:06:32;13.60;99.90
12013;DHT22;6065;48.138;16.402;2022-10-23T15:08:59;13.60;99.90
12013;DHT22;6065;48.138;16.402;2022-10-23T15:11:29;13.60;99.90
12013;DHT22;6065;48.138;16.402;2022-10-23T15:13:57;13.60;99.90
12013;DHT22;6065;48.138;16.402;2022-10-23T15:16:24;13.50;99.90
12013;DHT22;6065;48.138;16.402;2022-10-23T15:18:51;13.60;99.90
12013;DHT22;6065;48.138;16.402;2022-10-23T15:21:19;13.50;99.90
12013;DHT22;6065;48.138;16.402;2022-10-23T15:23:46;13.50;99.90
12013;DHT22;6065;48.138;16.402;2022-10-23T15:26:13;13.50;99.90
12013;DHT22;6065;48.138;16.402;2022-10-23T15:28:44;13.50;99.90
12013;DHT22;6065;48.138;16.402;2022-10-23T15:31:22;13.50;99.90
12013;DHT22;6065;48.138;16.402;2022-10-23T15:33:49;13.50;99.90
12013;DHT22;6065;48.138;16.402;2022-10-23T15:36:16;13.50;99.90
12013;DHT22;6065;48.138;16.402;2022-10-23T15:38:44;13.50;99.90
12013;DHT22;6065;48.138;16.402;2022-10-23T15:41:12;13.40;99.90
12013;DHT22;6065;48.138;16.402;2022-10-23T15:43:39;13.40;99.90
12013;DHT22;6065;48.138;16.402;2022-10-23T15:46:06;13.40;99.90
12013;DHT22;6065;48.138;16.402;2022-10-23T15:48:33;13.40;99.90
12013;DHT22;6065;48.138;16.402;2022-10-23T15:50:59;13.40;99.90